createdAt,value
2023-04-09T00:01:17.570Z,17.87
2023-04-09T00:03:44.065Z,15.93
2023-04-09T00:06:11.578Z,15.57
2023-04-09T00:08:37.968Z,13.53
2023-04-09T00:11:04.720Z,12.13
2023-04-09T00:13:39.288Z,13.07
2023-04-09T00:16:07.486Z,10.80
2023-04-09T00:18:34.033Z,14.00
2023-04-09T00:21:00.598Z,12.77
2023-04-09T00:23:27.045Z,12.60
2023-04-09T00:25:53.573Z,14.40
2023-04-09T00:28:20.105Z,11.63
2023-04-09T00:30:46.543Z,12.90
2023-04-09T00:33:12.995Z,11.47
2023-04-09T00:35:39.386Z,9.90
2023-04-09T00:38:05.831Z,10.10
2023-04-09T00:40:32.574Z,8.70
2023-04-09T00:42:59.015Z,7.70
2023-04-09T00:45:25.512Z,8.20
2023-04-09T00:47:52.259Z,7.57
2023-04-09T00:50:18.768Z,8.07
2023-04-09T00:52:45.696Z,8.37
2023-04-09T00:55:12.952Z,9.70
2023-04-09T00:57:39.430Z,8.80
2023-04-09T01:00:07.784Z,12.03
2023-04-09T01:02:34.747Z,6.63
2023-04-09T01:05:01.511Z,8.97
2023-04-09T01:07:54.238Z,10.70
2023-04-09T01:10:46.249Z,7.60
2023-04-09T01:13:18.646Z,8.90
2023-04-09T01:15:52.840Z,8.97
2023-04-09T01:18:27.026Z,7.00
2023-04-09T01:21:06.820Z,8.00
2023-04-09T01:23:56.910Z,7.57
2023-04-09T01:26:38.078Z,7.13
2023-04-09T01:29:06.249Z,7.57
2023-04-09T01:31:37.350Z,7.43
2023-04-09T01:34:06.294Z,10.00
2023-04-09T01:36:34.039Z,9.20
2023-04-09T01:39:02.279Z,7.87
2023-04-09T01:41:32.415Z,8.40
2023-04-09T01:44:01.846Z,6.53
2023-04-09T01:46:29.428Z,6.30
2023-04-09T01:48:56.869Z,7.43
2023-04-09T01:51:23.336Z,6.90
2023-04-09T01:53:49.857Z,7.17
2023-04-09T01:56:16.285Z,5.93
2023-04-09T01:58:42.717Z,6.57
2023-04-09T02:01:27.415Z,6.00
2023-04-09T02:03:58.075Z,7.10
2023-04-09T02:06:31.024Z,6.20
2023-04-09T02:09:00.315Z,7.27
2023-04-09T02:11:29.590Z,7.10
2023-04-09T02:13:56.679Z,6.67
2023-04-09T02:16:23.542Z,6.00
2023-04-09T02:18:54.949Z,6.73
2023-04-09T02:21:23.239Z,8.20
2023-04-09T02:23:50.522Z,5.63
2023-04-09T02:26:16.989Z,6.03
2023-04-09T02:28:43.362Z,9.53
2023-04-09T02:31:09.806Z,5.87
2023-04-09T02:33:36.291Z,6.67
2023-04-09T02:36:02.765Z,5.83
2023-04-09T02:38:29.213Z,6.57
2023-04-09T02:40:55.575Z,5.77
2023-04-09T02:43:21.936Z,5.87
2023-04-09T02:45:48.371Z,6.80
2023-04-09T02:48:14.861Z,8.23
2023-04-09T02:50:41.274Z,8.60
2023-04-09T02:53:07.728Z,6.70
2023-04-09T02:55:34.127Z,8.73
2023-04-09T02:58:00.601Z,7.20
2023-04-09T03:00:27.025Z,8.77
2023-04-09T03:02:53.583Z,5.73
2023-04-09T03:05:21.012Z,6.63
2023-04-09T03:07:47.448Z,6.80
2023-04-09T03:10:13.850Z,6.53
2023-04-09T03:12:40.259Z,7.77
2023-04-09T03:15:07.204Z,8.60
2023-04-09T03:17:33.895Z,9.77
2023-04-09T03:20:00.317Z,5.77
2023-04-09T03:22:26.730Z,9.17
2023-04-09T03:24:53.210Z,7.63
2023-04-09T03:27:19.645Z,6.60
2023-04-09T03:29:46.180Z,6.60
2023-04-09T03:32:12.589Z,7.07
2023-04-09T03:34:39.028Z,6.50
2023-04-09T03:37:05.538Z,7.63
2023-04-09T03:39:31.976Z,5.77
2023-04-09T03:41:58.923Z,7.03
2023-04-09T03:44:25.620Z,6.90
2023-04-09T03:46:52.101Z,7.83
2023-04-09T03:49:18.581Z,5.73
2023-04-09T03:51:45.101Z,5.07
2023-04-09T03:54:11.539Z,7.37
2023-04-09T03:56:37.935Z,6.73
2023-04-09T03:59:04.279Z,8.20
2023-04-09T04:01:30.853Z,7.23
2023-04-09T04:03:57.382Z,6.83
2023-04-09T04:06:23.842Z,9.53
2023-04-09T04:08:50.706Z,6.50
2023-04-09T04:11:17.350Z,7.70
2023-04-09T04:13:43.724Z,8.90
2023-04-09T04:16:10.921Z,6.30
2023-04-09T04:18:37.739Z,8.40
2023-04-09T04:21:04.401Z,7.80
2023-04-09T04:23:30.806Z,10.10
2023-04-09T04:25:58.098Z,8.60
2023-04-09T04:28:24.475Z,7.43
2023-04-09T04:30:50.866Z,13.73
2023-04-09T04:33:17.274Z,9.33
2023-04-09T04:35:43.735Z,8.27
2023-04-09T04:38:10.443Z,11.80
2023-04-09T04:40:36.969Z,7.50
2023-04-09T04:43:03.346Z,7.00
2023-04-09T04:45:29.783Z,6.23
2023-04-09T04:47:56.292Z,8.20
2023-04-09T04:50:22.722Z,8.40
2023-04-09T04:52:49.167Z,6.80
2023-04-09T04:55:15.653Z,7.80
2023-04-09T04:57:42.057Z,8.80
2023-04-09T05:00:09.060Z,7.03
2023-04-09T05:02:35.634Z,8.23
2023-04-09T05:05:02.245Z,7.07
2023-04-09T05:07:28.966Z,13.03
2023-04-09T05:09:55.333Z,7.80
2023-04-09T05:12:21.785Z,7.97
2023-04-09T05:14:48.206Z,7.70
2023-04-09T05:17:15.547Z,6.80
2023-04-09T05:19:41.988Z,8.50
2023-04-09T05:22:08.455Z,11.40
2023-04-09T05:24:34.839Z,28.40
2023-04-09T05:27:01.304Z,30.33
2023-04-09T05:29:27.736Z,22.87
2023-04-09T05:31:54.145Z,13.67
2023-04-09T05:34:20.569Z,13.40
2023-04-09T05:36:46.989Z,7.80
2023-04-09T05:39:13.450Z,7.57
2023-04-09T05:41:40.677Z,8.90
2023-04-09T05:44:07.099Z,14.47
2023-04-09T05:46:33.639Z,13.80
2023-04-09T05:49:00.202Z,14.47
2023-04-09T05:51:26.634Z,12.77
2023-04-09T05:53:53.273Z,14.27
2023-04-09T05:56:22.640Z,13.80
2023-04-09T05:58:49.208Z,12.30
2023-04-09T06:01:15.793Z,15.17
2023-04-09T06:03:42.408Z,12.77
2023-04-09T06:06:08.904Z,16.67
2023-04-09T06:08:35.326Z,11.53
2023-04-09T06:11:01.977Z,12.17
2023-04-09T06:13:28.353Z,18.00
2023-04-09T06:15:55.021Z,22.53
2023-04-09T06:18:22.036Z,22.10
2023-04-09T06:20:48.447Z,20.07
2023-04-09T06:23:14.852Z,17.07
2023-04-09T06:25:41.340Z,16.77
2023-04-09T06:28:07.700Z,21.93
2023-04-09T06:30:35.769Z,16.50
2023-04-09T06:33:02.261Z,18.90
2023-04-09T06:35:28.723Z,16.70
2023-04-09T06:37:55.089Z,14.03
2023-04-09T06:40:23.348Z,13.37
2023-04-09T06:42:49.996Z,13.37
2023-04-09T06:45:16.513Z,11.50
2023-04-09T06:47:43.025Z,9.23
2023-04-09T06:50:09.596Z,10.80
2023-04-09T06:52:36.337Z,9.93
2023-04-09T06:55:02.772Z,9.70
2023-04-09T06:57:29.173Z,10.30
2023-04-09T06:59:55.721Z,9.53
2023-04-09T07:02:22.448Z,11.27
2023-04-09T07:04:49.135Z,12.43
2023-04-09T07:07:15.710Z,9.83
2023-04-09T07:09:42.787Z,13.40
2023-04-09T07:12:09.171Z,10.27
2023-04-09T07:14:35.702Z,10.47
2023-04-09T07:17:02.116Z,9.77
2023-04-09T07:19:28.490Z,11.70
2023-04-09T07:21:55.366Z,10.60
2023-04-09T07:24:21.827Z,11.90
2023-04-09T07:26:49.108Z,13.50
2023-04-09T07:29:16.898Z,11.50
2023-04-09T07:31:44.768Z,12.03
2023-04-09T07:34:11.363Z,13.63
2023-04-09T07:36:37.876Z,11.50
2023-04-09T07:39:04.314Z,12.47
2023-04-09T07:41:31.585Z,12.17
2023-04-09T07:43:58.044Z,14.30
2023-04-09T07:46:24.626Z,13.00
2023-04-09T07:48:51.454Z,13.27
2023-04-09T07:51:18.257Z,14.03
2023-04-09T07:53:44.677Z,13.23
2023-04-09T07:56:11.273Z,13.20
2023-04-09T07:58:40.537Z,13.90
2023-04-09T08:01:06.946Z,14.63
2023-04-09T08:03:33.701Z,13.53
2023-04-09T08:06:00.210Z,14.40
2023-04-09T08:08:26.646Z,14.97
2023-04-09T08:10:53.560Z,14.60
2023-04-09T08:13:20.010Z,14.30
2023-04-09T08:15:46.481Z,15.40
2023-04-09T08:18:12.999Z,17.33
2023-04-09T08:20:44.887Z,16.03
2023-04-09T08:23:12.095Z,16.37
2023-04-09T08:25:38.541Z,15.10
2023-04-09T08:28:05.497Z,16.10
2023-04-09T08:30:34.150Z,16.23
2023-04-09T08:33:01.699Z,15.80
2023-04-09T08:35:30.690Z,18.17
2023-04-09T08:37:57.508Z,15.13
2023-04-09T08:40:24.399Z,16.00
2023-04-09T08:42:58.732Z,16.27
2023-04-09T08:45:25.182Z,17.43
2023-04-09T08:47:52.103Z,15.10
2023-04-09T08:50:19.269Z,16.50
2023-04-09T08:52:48.256Z,18.73
2023-04-09T08:55:14.938Z,26.10
2023-04-09T08:57:42.005Z,16.87
2023-04-09T09:00:09.260Z,18.40
2023-04-09T09:02:36.271Z,18.40
2023-04-09T09:05:02.876Z,14.50
2023-04-09T09:07:29.755Z,18.53
2023-04-09T09:09:58.770Z,17.93
2023-04-09T09:12:42.062Z,17.47
2023-04-09T09:15:28.167Z,17.20
2023-04-09T09:17:59.460Z,17.40
2023-04-09T09:20:27.013Z,16.37
2023-04-09T09:22:55.802Z,22.40
2023-04-09T09:25:26.120Z,19.83
2023-04-09T09:27:54.029Z,14.10
2023-04-09T09:30:25.904Z,17.43
2023-04-09T09:33:05.903Z,18.30
2023-04-09T09:35:47.566Z,15.50
2023-04-09T09:38:15.882Z,16.30
2023-04-09T09:40:42.314Z,16.50
2023-04-09T09:43:08.740Z,13.80
2023-04-09T09:45:37.234Z,15.50
2023-04-09T09:48:05.464Z,15.30
2023-04-09T09:50:34.558Z,14.50
2023-04-09T09:53:04.876Z,16.70
2023-04-09T09:55:32.834Z,15.20
2023-04-09T09:58:08.342Z,14.80
2023-04-09T10:00:37.377Z,16.43
2023-04-09T10:03:14.258Z,14.27
2023-04-09T10:05:41.493Z,16.10
2023-04-09T10:08:08.124Z,13.53
2023-04-09T10:10:35.940Z,14.47
2023-04-09T10:13:03.376Z,14.40
2023-04-09T10:15:31.060Z,13.63
2023-04-09T10:17:58.000Z,13.10
2023-04-09T10:20:32.457Z,14.83
2023-04-09T10:23:06.208Z,11.70
2023-04-09T10:25:32.799Z,12.20
2023-04-09T10:28:02.725Z,12.60
2023-04-09T10:30:33.681Z,10.77
2023-04-09T10:33:11.428Z,12.40
2023-04-09T10:35:38.056Z,10.80
2023-04-09T10:38:08.330Z,10.07
2023-04-09T10:40:34.946Z,9.80
2023-04-09T10:43:03.022Z,10.47
2023-04-09T10:45:40.936Z,10.20
2023-04-09T10:48:12.968Z,12.27
2023-04-09T10:50:40.201Z,10.77
2023-04-09T10:53:06.630Z,10.67
2023-04-09T10:55:38.450Z,9.87
2023-04-09T10:58:06.601Z,9.80
2023-04-09T11:00:42.323Z,11.60
2023-04-09T11:03:08.766Z,9.77
2023-04-09T11:05:39.826Z,10.10
2023-04-09T11:08:12.011Z,10.53
2023-04-09T11:10:40.930Z,10.47
2023-04-09T11:13:11.755Z,8.67
2023-04-09T11:15:38.918Z,8.40
2023-04-09T11:18:07.052Z,8.90
2023-04-09T11:20:34.477Z,8.00
2023-04-09T11:23:01.088Z,10.80
2023-04-09T11:25:29.766Z,8.57
2023-04-09T11:27:56.263Z,9.77
2023-04-09T11:30:22.809Z,8.57
2023-04-09T11:32:50.096Z,9.53
2023-04-09T11:35:18.912Z,8.90
2023-04-09T11:37:46.567Z,9.10
2023-04-09T11:40:17.747Z,7.77
2023-04-09T11:42:45.543Z,7.53
2023-04-09T11:45:12.531Z,7.73
2023-04-09T11:47:41.688Z,7.40
2023-04-09T11:50:09.560Z,6.80
2023-04-09T11:52:36.664Z,7.20
2023-04-09T11:55:04.508Z,10.10
2023-04-09T11:57:51.893Z,6.33
2023-04-09T12:00:19.794Z,5.53
2023-04-09T12:02:50.607Z,9.00
2023-04-09T12:05:25.291Z,6.70
2023-04-09T12:10:27.432Z,6.90
2023-04-09T12:12:53.818Z,6.90
2023-04-09T12:15:25.477Z,8.30
2023-04-09T12:17:54.481Z,9.07
2023-04-09T12:20:31.199Z,8.00
2023-04-09T12:23:00.226Z,10.40
2023-04-09T12:25:27.689Z,9.87
2023-04-09T12:27:56.038Z,7.20
2023-04-09T12:30:23.642Z,7.30
2023-04-09T12:32:50.808Z,7.73
2023-04-09T12:35:17.559Z,8.10
2023-04-09T12:37:44.641Z,7.10
2023-04-09T12:40:13.817Z,7.40
2023-04-09T12:42:44.711Z,8.00
2023-04-09T12:45:13.220Z,6.60
2023-04-09T12:47:39.952Z,6.80
2023-04-09T12:50:07.966Z,6.30
2023-04-09T12:52:34.794Z,5.77
2023-04-09T12:55:01.837Z,6.07
2023-04-09T12:57:28.878Z,5.50
2023-04-09T12:59:55.442Z,5.33
2023-04-09T13:02:22.289Z,5.90
2023-04-09T13:04:49.247Z,6.00
2023-04-09T13:07:17.386Z,5.27
2023-04-09T13:09:45.280Z,6.70
2023-04-09T13:12:12.587Z,6.27
2023-04-09T13:14:40.074Z,4.97
2023-04-09T13:17:06.600Z,5.20
2023-04-09T13:19:33.312Z,6.53
2023-04-09T13:21:59.719Z,8.20
2023-04-09T13:24:26.131Z,5.83
2023-04-09T13:26:52.566Z,5.80
2023-04-09T13:29:19.008Z,6.20
2023-04-09T13:31:45.661Z,5.20
2023-04-09T13:34:12.128Z,4.57
2023-04-09T13:36:38.508Z,5.67
2023-04-09T13:39:05.038Z,5.47
2023-04-09T13:41:33.032Z,5.90
2023-04-09T13:44:01.386Z,5.33
2023-04-09T13:46:28.157Z,5.50
2023-04-09T13:48:55.292Z,5.33
2023-04-09T13:51:22.845Z,5.10
2023-04-09T13:53:50.733Z,5.20
2023-04-09T13:56:17.194Z,5.17
2023-04-09T13:58:43.868Z,5.20
2023-04-09T14:01:11.583Z,5.63
2023-04-09T14:03:40.147Z,5.87
2023-04-09T14:06:08.517Z,4.53
2023-04-09T14:08:35.862Z,5.53
2023-04-09T14:11:02.719Z,4.97
2023-04-09T14:13:29.538Z,4.83
2023-04-09T14:15:57.416Z,4.60
2023-04-09T14:18:25.087Z,4.97
2023-04-09T14:20:51.621Z,5.73
2023-04-09T14:23:18.054Z,5.23
2023-04-09T14:25:44.720Z,5.50
2023-04-09T14:28:11.239Z,5.90
2023-04-09T14:30:37.673Z,6.03
2023-04-09T14:33:04.220Z,5.50
2023-04-09T14:35:30.888Z,6.40
2023-04-09T14:37:57.478Z,6.63
2023-04-09T14:40:24.040Z,6.37
2023-04-09T14:42:50.508Z,6.27
2023-04-09T14:45:16.921Z,5.83
2023-04-09T14:47:43.339Z,6.53
2023-04-09T14:50:12.654Z,6.67
2023-04-09T14:52:39.295Z,5.53
2023-04-09T14:55:09.091Z,5.60
2023-04-09T14:57:35.541Z,6.03
2023-04-09T15:00:02.274Z,7.57
2023-04-09T15:02:28.921Z,6.37
2023-04-09T15:04:55.586Z,8.17
2023-04-09T15:07:23.259Z,6.20
2023-04-09T15:09:51.464Z,6.20
2023-04-09T15:12:18.540Z,5.80
2023-04-09T15:14:44.956Z,6.93
2023-04-09T15:17:11.555Z,6.27
2023-04-09T15:19:37.939Z,6.77
2023-04-09T15:22:04.353Z,5.50
2023-04-09T15:24:30.955Z,6.20
2023-04-09T15:26:57.573Z,6.00
2023-04-09T15:29:24.093Z,5.40
2023-04-09T15:31:52.881Z,5.13
2023-04-09T15:34:19.419Z,6.00
2023-04-09T15:36:46.282Z,6.30
2023-04-09T15:39:12.761Z,6.50
2023-04-09T15:41:39.456Z,5.10
2023-04-09T15:44:05.934Z,5.47
2023-04-09T15:46:32.499Z,5.10
2023-04-09T15:48:58.938Z,5.83
2023-04-09T15:51:26.732Z,6.13
2023-04-09T15:53:53.326Z,5.73
2023-04-09T15:56:20.303Z,5.73
2023-04-09T15:58:46.729Z,7.07
2023-04-09T16:01:13.376Z,6.47
2023-04-09T16:03:41.180Z,8.00
2023-04-09T16:06:09.791Z,6.17
2023-04-09T16:08:37.256Z,5.50
2023-04-09T16:11:04.847Z,4.83
2023-04-09T16:13:31.270Z,5.53
2023-04-09T16:15:57.708Z,5.70
2023-04-09T16:18:27.107Z,6.27
2023-04-09T16:20:54.442Z,6.37
2023-04-09T16:23:21.856Z,5.30
2023-04-09T16:25:48.383Z,7.80
2023-04-09T16:28:19.386Z,6.83
2023-04-09T16:30:45.870Z,6.90
2023-04-09T16:33:12.540Z,6.63
2023-04-09T16:35:39.732Z,17.13
2023-04-09T16:38:06.971Z,11.90
2023-04-09T16:40:33.686Z,8.97
2023-04-09T16:43:03.634Z,7.00
2023-04-09T16:45:30.265Z,22.80
2023-04-09T16:47:56.720Z,54.53
2023-04-09T16:50:23.462Z,120.90
2023-04-09T16:52:49.851Z,45.87
2023-04-09T16:55:16.596Z,22.00
2023-04-09T16:57:43.228Z,34.93
2023-04-09T17:00:10.445Z,13.00
2023-04-09T17:02:37.690Z,31.97
2023-04-09T17:05:04.315Z,128.60
2023-04-09T17:07:30.738Z,81.07
2023-04-09T17:09:57.205Z,32.10
2023-04-09T17:12:24.544Z,26.27
2023-04-09T17:14:51.574Z,12.40
2023-04-09T17:17:18.498Z,8.60
2023-04-09T17:19:45.120Z,6.73
2023-04-09T17:22:13.344Z,5.57
2023-04-09T17:24:39.997Z,6.27
2023-04-09T17:27:07.161Z,6.70
2023-04-09T17:29:34.306Z,6.03
2023-04-09T17:32:00.752Z,5.80
2023-04-09T17:34:27.459Z,6.50
2023-04-09T17:36:57.306Z,6.00
2023-04-09T17:39:29.248Z,7.20
2023-04-09T17:41:56.479Z,5.60
2023-04-09T17:44:24.867Z,6.13
2023-04-09T17:46:51.886Z,6.40
2023-04-09T17:49:18.512Z,5.97
2023-04-09T17:51:44.930Z,6.30
2023-04-09T17:54:11.680Z,6.37
2023-04-09T17:56:39.070Z,6.30
2023-04-09T17:59:06.652Z,5.70
2023-04-09T18:01:33.259Z,5.83
2023-04-09T18:04:01.092Z,6.50
2023-04-09T18:06:28.179Z,6.73
2023-04-09T18:08:54.664Z,6.53
2023-04-09T18:11:21.148Z,5.60
2023-04-09T18:13:48.356Z,5.33
2023-04-09T18:16:15.099Z,5.83
2023-04-09T18:18:41.535Z,7.13
2023-04-09T18:21:08.055Z,6.67
2023-04-09T18:23:34.817Z,7.17
2023-04-09T18:26:01.658Z,6.40
2023-04-09T18:28:28.172Z,5.93
2023-04-09T18:30:54.871Z,6.17
2023-04-09T18:33:21.724Z,8.00
2023-04-09T18:35:48.244Z,7.80
2023-04-09T18:38:14.754Z,6.07
2023-04-09T18:40:44.512Z,6.20
2023-04-09T18:43:12.382Z,6.93
2023-04-09T18:45:41.994Z,9.17
2023-04-09T18:48:08.887Z,6.00
2023-04-09T18:50:36.026Z,5.90
2023-04-09T18:53:03.637Z,7.60
2023-04-09T18:55:30.727Z,6.00
2023-04-09T18:57:57.487Z,5.90
2023-04-09T19:00:24.106Z,5.60
2023-04-09T19:02:50.946Z,6.80
2023-04-09T19:05:17.755Z,5.23
2023-04-09T19:07:44.463Z,5.10
2023-04-09T19:10:10.932Z,5.73
2023-04-09T19:12:37.741Z,6.23
2023-04-09T19:15:04.839Z,6.60
2023-04-09T19:17:32.166Z,6.23
2023-04-09T19:19:58.586Z,6.70
2023-04-09T19:22:25.037Z,6.20
2023-04-09T19:24:51.466Z,5.30
2023-04-09T19:27:18.642Z,8.43
2023-04-09T19:29:46.595Z,5.40
2023-04-09T19:32:13.347Z,6.80
2023-04-09T19:34:39.787Z,7.33
2023-04-09T19:37:06.262Z,5.60
2023-04-09T19:39:32.714Z,6.00
2023-04-09T19:41:59.163Z,6.87
2023-04-09T19:44:25.734Z,7.00
2023-04-09T19:46:52.165Z,7.17
2023-04-09T19:49:18.568Z,10.33
2023-04-09T19:51:44.985Z,5.20
2023-04-09T19:54:11.588Z,5.30
2023-04-09T19:56:38.279Z,5.10
2023-04-09T19:59:04.831Z,5.37
2023-04-09T20:01:31.403Z,7.00
2023-04-09T20:03:58.016Z,5.63
2023-04-09T20:06:24.640Z,6.17
2023-04-09T20:08:51.592Z,7.07
2023-04-09T20:11:19.147Z,5.33
2023-04-09T20:13:47.461Z,6.60
2023-04-09T20:16:15.067Z,7.37
2023-04-09T20:18:41.490Z,5.80
2023-04-09T20:21:08.618Z,6.90
2023-04-09T20:23:35.026Z,5.60
2023-04-09T20:26:02.611Z,6.73
2023-04-09T20:28:29.583Z,5.73
2023-04-09T20:30:56.560Z,6.17
2023-04-09T20:33:22.999Z,5.57
2023-04-09T20:35:50.334Z,7.27
2023-04-09T20:38:20.475Z,6.00
2023-04-09T20:40:47.120Z,5.87
2023-04-09T20:43:13.716Z,5.60
2023-04-09T20:45:40.152Z,8.23
2023-04-09T20:48:06.758Z,5.60
2023-04-09T20:50:33.248Z,6.63
2023-04-09T20:52:59.676Z,7.00
2023-04-09T20:55:26.218Z,7.53
2023-04-09T20:57:55.438Z,8.73
2023-04-09T21:00:22.599Z,7.93
2023-04-09T21:02:49.236Z,8.50
2023-04-09T21:05:22.598Z,7.43
2023-04-09T21:07:51.845Z,6.77
2023-04-09T21:10:18.329Z,6.33
2023-04-09T21:12:44.778Z,8.80
2023-04-09T21:15:11.423Z,6.80
2023-04-09T21:17:37.952Z,5.80
2023-04-09T21:20:04.805Z,7.63
2023-04-09T21:22:31.955Z,6.80
2023-04-09T21:24:58.460Z,6.03
2023-04-09T21:27:24.927Z,6.40
2023-04-09T21:29:51.367Z,7.00
2023-04-09T21:32:17.960Z,8.17
2023-04-09T21:34:44.527Z,8.73
2023-04-09T21:37:11.077Z,7.90
2023-04-09T21:39:38.350Z,7.50
2023-04-09T21:42:05.884Z,7.57
2023-04-09T21:44:32.304Z,6.60
2023-04-09T21:46:58.739Z,7.50
2023-04-09T21:49:25.167Z,6.67
2023-04-09T21:51:52.731Z,8.30
2023-04-09T21:54:19.116Z,8.17
2023-04-09T21:56:46.325Z,6.73
2023-04-09T21:59:12.754Z,6.13
2023-04-09T22:01:39.269Z,6.40
2023-04-09T22:04:05.865Z,6.23
2023-04-09T22:06:32.453Z,7.60
2023-04-09T22:08:59.140Z,10.30
2023-04-09T22:11:27.548Z,6.80
2023-04-09T22:13:57.947Z,6.47
2023-04-09T22:16:25.488Z,6.70
2023-04-09T22:18:53.982Z,9.00
2023-04-09T22:21:20.725Z,7.50
2023-04-09T22:23:47.189Z,9.10
2023-04-09T22:26:13.730Z,7.63
2023-04-09T22:28:40.260Z,7.53
2023-04-09T22:31:07.133Z,7.80
2023-04-09T22:33:33.592Z,6.70
2023-04-09T22:36:00.154Z,7.60
2023-04-09T22:38:26.815Z,6.80
2023-04-09T22:40:53.444Z,7.50
2023-04-09T22:43:19.942Z,6.47
2023-04-09T22:45:54.135Z,8.53
2023-04-09T22:48:21.853Z,10.17
2023-04-09T22:50:49.514Z,8.53
2023-04-09T22:53:19.056Z,9.47
2023-04-09T22:55:54.373Z,7.63
2023-04-09T22:58:21.101Z,8.87
2023-04-09T23:00:48.208Z,7.27
2023-04-09T23:03:15.122Z,9.40
2023-04-09T23:05:41.878Z,7.73
2023-04-09T23:08:08.555Z,9.37
2023-04-09T23:10:35.855Z,8.03
2023-04-09T23:13:02.321Z,12.23
2023-04-09T23:15:28.906Z,7.00
2023-04-09T23:17:55.653Z,7.23
2023-04-09T23:20:22.274Z,7.30
2023-04-09T23:22:49.025Z,6.80
2023-04-09T23:25:16.274Z,7.20
2023-04-09T23:27:42.872Z,7.40
2023-04-09T23:30:10.230Z,7.47
2023-04-09T23:32:36.959Z,6.80
2023-04-09T23:35:04.096Z,9.60
2023-04-09T23:37:30.995Z,8.33
2023-04-09T23:39:57.411Z,7.80
2023-04-09T23:42:23.878Z,7.40
2023-04-09T23:44:50.470Z,6.40
2023-04-09T23:47:17.368Z,6.93
2023-04-09T23:49:43.897Z,10.00
2023-04-09T23:52:10.516Z,6.63
2023-04-09T23:54:36.924Z,6.20
2023-04-09T23:57:03.484Z,8.77
2023-04-09T23:59:33.783Z,8.70
